Briefing drone pour Le rouget

Rechercher une autre localisation

Conditions de vol :


Nous sommes le : Lundi 28 septembre 2020
Il est 03:17 UTC (05:17 LT)

Lever de soleil : 05:19 UTC (07:19 LT)
Coucher de soleil : 18:03 UTC (20:03 LT)

Météo

L'essentiel des conditions de vol

VIGILANCE MÉTÉO FRANCE - Cantal (15)
Vigilance Jaune : Pluie-inondation
CARTE TEMSI
CARTES DES FRONTS
METAR de LFLW
LFLW 280300Z AUTO 28004KT 250V320 4300 -RA BR OVC004 07/07 Q1013

Date d'émission: 28/09/2020
Heure d'émission: 03:00 UTC
Vent: 280° (variable du 250° au 320°) pour 4 KT (7 km/h)
Visibilité horizontale: 4300 m
Plafond :
- Couvert à 400ft (122m)
Température: 7 °C
Point de rosée: 7 °C
Humidité: 100%
Pression (QNH): 1013 hPa
Conditions: Faible pluie
Prévision 24h pour Aurillac (12 km)
Vent : 32° pour 1 KT (4 km/h)
Temperature Maxi: 5 °C
Temperature Min: 5 °C
Humidité : 96%
Condition : Peu nuageux



Warning: count(): Parameter must be an array or an object that implements Countable in /homepages/6/d509196549/htdocs/droneoxygene/briefing.php on line 743
WEBCAM POUR LE ROUGET

Réglementation

Voler en sécurité

CARTES AERONAUTIQUE 1/500.000
CARTES VAC (LFLW)
SUP AIP




Chargement des AIP...
NOTAM (LE ROUGET + Terrain à proximité / FIR )




Chargement des NOTAMS...
CONTACT PREFECTURE 15


Avertissement : Les données mises à disposition sont indicatives. Oxygène Drone ne pourra être tenu responsable de dégâts causés aux biens et aux personnes.